createdAt,value
2022-12-31T00:00:14.978Z,8.43
2022-12-31T00:02:42.016Z,8.10
2022-12-31T00:05:09.711Z,8.87
2022-12-31T00:10:04.056Z,8.45
2022-12-31T00:12:30.990Z,7.13
2022-12-31T00:14:57.795Z,8.02
2022-12-31T00:17:24.633Z,5.90
2022-12-31T00:19:51.434Z,6.80
2022-12-31T00:22:18.317Z,7.00
2022-12-31T00:24:45.211Z,7.13
2022-12-31T00:27:11.954Z,9.57
2022-12-31T00:29:38.775Z,8.47
2022-12-31T00:32:05.859Z,6.05
2022-12-31T00:34:32.818Z,9.45
2022-12-31T00:36:59.573Z,6.50
2022-12-31T00:39:26.412Z,5.80
2022-12-31T00:41:53.279Z,4.70
2022-12-31T00:44:20.157Z,9.50
2022-12-31T00:46:48.372Z,6.00
2022-12-31T00:49:15.453Z,8.82
2022-12-31T00:51:42.446Z,8.45
2022-12-31T00:54:10.137Z,12.20
2022-12-31T00:56:36.945Z,8.20
2022-12-31T00:59:03.903Z,8.57
2022-12-31T01:01:36.520Z,7.78
2022-12-31T01:04:12.977Z,9.93
2022-12-31T01:06:40.204Z,8.20
2022-12-31T01:09:08.028Z,8.50
2022-12-31T01:11:34.907Z,8.57
2022-12-31T01:14:05.301Z,11.27
2022-12-31T01:16:47.602Z,9.60
2022-12-31T01:19:24.287Z,9.40
2022-12-31T01:21:51.914Z,7.38
2022-12-31T01:24:19.604Z,8.88
2022-12-31T01:26:47.278Z,8.05
2022-12-31T01:29:14.587Z,9.77
2022-12-31T01:31:41.518Z,8.53
2022-12-31T01:34:09.729Z,7.00
2022-12-31T01:36:38.035Z,9.23
2022-12-31T01:39:07.175Z,8.93
2022-12-31T01:41:38.287Z,7.68
2022-12-31T01:44:14.213Z,8.17
2022-12-31T01:46:48.213Z,9.40
2022-12-31T01:49:29.845Z,5.82
2022-12-31T01:52:13.126Z,6.80
2022-12-31T01:54:44.735Z,7.28
2022-12-31T01:57:12.976Z,6.50
2022-12-31T01:59:40.660Z,7.88
2022-12-31T02:02:07.758Z,8.57
2022-12-31T02:04:34.776Z,9.13
2022-12-31T02:07:04.871Z,8.15
2022-12-31T02:09:32.378Z,4.97
2022-12-31T02:11:59.735Z,5.95
2022-12-31T02:14:34.688Z,6.53
2022-12-31T02:17:27.999Z,5.03
2022-12-31T02:20:06.856Z,4.20
2022-12-31T02:22:52.010Z,4.67
2022-12-31T02:25:30.007Z,3.83
2022-12-31T02:28:25.733Z,4.32
2022-12-31T02:31:05.389Z,6.40
2022-12-31T02:33:48.071Z,4.00
2022-12-31T02:36:26.245Z,6.80
2022-12-31T02:38:53.475Z,6.03
2022-12-31T02:41:40.036Z,4.22
2022-12-31T02:44:26.407Z,4.82
2022-12-31T02:47:05.183Z,4.00
2022-12-31T02:49:40.991Z,3.07
2022-12-31T02:52:29.521Z,3.85
2022-12-31T02:55:41.368Z,3.13
2022-12-31T02:58:15.457Z,6.10
2022-12-31T03:01:15.171Z,5.88
2022-12-31T03:03:42.971Z,4.10
2022-12-31T03:06:11.643Z,4.43
2022-12-31T03:09:02.931Z,5.70
2022-12-31T03:11:48.487Z,6.07
2022-12-31T03:14:15.441Z,5.78
2022-12-31T03:16:42.273Z,4.60
2022-12-31T03:19:27.772Z,5.45
2022-12-31T03:22:13.480Z,4.15
2022-12-31T03:24:58.843Z,5.47
2022-12-31T03:27:25.651Z,5.15
2022-12-31T03:29:52.549Z,5.73
2022-12-31T03:32:19.435Z,4.97
2022-12-31T03:34:46.235Z,4.53
2022-12-31T03:37:13.069Z,7.07
2022-12-31T03:39:40.001Z,3.97
2022-12-31T03:42:06.911Z,5.00
2022-12-31T03:44:33.680Z,5.13
2022-12-31T03:47:00.544Z,5.43
2022-12-31T03:49:27.396Z,6.97
2022-12-31T03:51:54.275Z,5.85
2022-12-31T03:54:21.067Z,4.70
2022-12-31T03:56:49.512Z,4.75
2022-12-31T03:59:16.471Z,4.25
2022-12-31T04:01:43.297Z,4.05
2022-12-31T04:04:10.272Z,4.60
2022-12-31T04:06:37.214Z,5.30
2022-12-31T04:09:04.093Z,4.68
2022-12-31T04:11:30.943Z,5.60
2022-12-31T04:13:59.291Z,4.75
2022-12-31T04:16:26.231Z,6.50
2022-12-31T04:18:53.083Z,3.70
2022-12-31T04:21:19.990Z,4.50
2022-12-31T04:23:46.935Z,4.03
2022-12-31T04:26:13.799Z,6.50
2022-12-31T04:28:40.725Z,6.13
2022-12-31T04:31:07.746Z,8.87
2022-12-31T04:33:34.632Z,7.75
2022-12-31T04:36:06.391Z,6.78
2022-12-31T04:38:34.335Z,9.45
2022-12-31T04:41:20.870Z,8.45
2022-12-31T04:43:52.929Z,14.73
2022-12-31T04:46:22.713Z,9.60
2022-12-31T04:48:49.629Z,10.55
2022-12-31T04:51:16.531Z,13.23
2022-12-31T04:53:43.381Z,11.98
2022-12-31T04:56:11.221Z,13.43
2022-12-31T04:58:38.952Z,8.40
2022-12-31T05:01:07.069Z,8.07
2022-12-31T05:03:34.764Z,9.10
2022-12-31T05:06:07.425Z,10.60
2022-12-31T05:08:34.452Z,8.20
2022-12-31T05:11:01.314Z,7.97
2022-12-31T05:13:33.137Z,10.50
2022-12-31T05:16:01.481Z,8.75
2022-12-31T05:18:29.099Z,7.90
2022-12-31T05:20:55.983Z,8.83
2022-12-31T05:23:24.026Z,8.07
2022-12-31T05:25:51.586Z,7.65
2022-12-31T05:28:18.393Z,9.55
2022-12-31T05:30:47.800Z,7.35
2022-12-31T05:33:14.674Z,4.83
2022-12-31T05:35:41.565Z,6.65
2022-12-31T05:38:08.626Z,5.68
2022-12-31T05:40:35.392Z,6.95
2022-12-31T05:43:02.177Z,5.68
2022-12-31T05:45:31.208Z,4.23
2022-12-31T05:47:58.504Z,4.90
2022-12-31T05:50:25.533Z,4.47
2022-12-31T05:52:56.405Z,3.45
2022-12-31T05:55:23.886Z,4.30
2022-12-31T05:57:50.680Z,4.43
2022-12-31T06:00:17.868Z,5.00
2022-12-31T06:02:45.397Z,4.65
2022-12-31T06:05:12.363Z,5.35
2022-12-31T06:07:39.266Z,4.43
2022-12-31T06:10:06.675Z,4.20
2022-12-31T06:12:33.689Z,4.35
2022-12-31T06:15:00.583Z,5.50
2022-12-31T06:17:31.962Z,6.00
2022-12-31T06:19:59.790Z,5.95
2022-12-31T06:22:26.696Z,8.47
2022-12-31T06:24:53.791Z,10.98
2022-12-31T06:27:20.589Z,8.43
2022-12-31T06:29:48.107Z,10.95
2022-12-31T06:32:16.177Z,12.23
2022-12-31T06:34:42.966Z,12.27
2022-12-31T06:37:09.888Z,12.25
2022-12-31T06:39:36.855Z,10.60
2022-12-31T06:42:03.717Z,10.57
2022-12-31T06:44:30.715Z,9.48
2022-12-31T06:46:57.682Z,8.13
2022-12-31T06:49:24.447Z,6.82
2022-12-31T06:51:51.195Z,6.38
2022-12-31T06:54:19.231Z,5.50
2022-12-31T06:56:46.436Z,5.57
2022-12-31T06:59:25.952Z,3.70
2022-12-31T07:02:13.833Z,5.10
2022-12-31T07:05:35.306Z,3.78
2022-12-31T07:08:25.901Z,1.63
2022-12-31T07:11:00.671Z,1.75
2022-12-31T07:13:51.386Z,1.30
2022-12-31T07:16:21.425Z,1.00
2022-12-31T07:19:26.123Z,1.20
2022-12-31T07:21:55.617Z,1.00
2022-12-31T07:24:22.887Z,1.17
2022-12-31T07:27:20.336Z,3.20
2022-12-31T07:30:14.167Z,1.52
2022-12-31T07:33:05.763Z,1.20
2022-12-31T07:35:50.737Z,2.97
2022-12-31T07:38:23.508Z,1.50
2022-12-31T07:41:09.320Z,3.20
2022-12-31T07:43:46.398Z,1.77
2022-12-31T07:46:26.002Z,2.00
2022-12-31T07:48:53.183Z,2.00
2022-12-31T07:51:20.468Z,2.30
2022-12-31T07:53:47.385Z,3.10
2022-12-31T07:56:14.276Z,2.25
2022-12-31T07:58:41.119Z,2.95
2022-12-31T08:01:19.931Z,2.47
2022-12-31T08:04:16.203Z,2.95
2022-12-31T08:07:03.320Z,3.20
2022-12-31T08:09:58.160Z,3.80
2022-12-31T08:12:27.669Z,2.50
2022-12-31T08:14:54.626Z,2.47
2022-12-31T08:17:21.640Z,3.88
2022-12-31T08:19:48.877Z,5.20
2022-12-31T08:22:21.707Z,2.15
2022-12-31T08:24:48.481Z,2.92
2022-12-31T08:27:40.464Z,9.32
2022-12-31T08:30:16.204Z,3.05
2022-12-31T08:33:20.351Z,2.80
2022-12-31T08:35:47.228Z,4.40
2022-12-31T08:38:47.689Z,2.25
2022-12-31T08:41:26.252Z,1.83
2022-12-31T08:43:59.367Z,3.13
2022-12-31T08:46:29.179Z,3.80
2022-12-31T08:48:56.299Z,2.65
2022-12-31T08:51:25.652Z,3.53
2022-12-31T08:53:53.452Z,2.72
2022-12-31T08:56:52.558Z,3.45
2022-12-31T08:59:42.102Z,3.00
2022-12-31T09:02:44.609Z,2.85
2022-12-31T09:05:23.660Z,3.97
2022-12-31T09:07:56.266Z,3.88
2022-12-31T09:10:42.791Z,3.25
2022-12-31T09:13:26.190Z,2.00
2022-12-31T09:16:22.500Z,3.30
2022-12-31T09:18:49.452Z,3.58
2022-12-31T09:21:16.655Z,4.00
2022-12-31T09:23:43.887Z,4.18
2022-12-31T09:26:37.613Z,6.47
2022-12-31T09:29:09.324Z,4.72
2022-12-31T09:31:44.677Z,4.07
2022-12-31T09:34:38.741Z,4.35
2022-12-31T09:37:35.307Z,3.85
2022-12-31T09:40:29.953Z,5.17
2022-12-31T09:43:02.587Z,7.22
2022-12-31T09:45:38.640Z,4.45
2022-12-31T09:48:32.753Z,4.15
2022-12-31T09:51:28.536Z,6.93
2022-12-31T09:54:23.562Z,3.80
2022-12-31T09:57:03.507Z,3.63
2022-12-31T09:59:46.384Z,4.32
2022-12-31T10:02:37.099Z,3.63
2022-12-31T10:05:04.002Z,4.85
2022-12-31T10:07:50.425Z,4.23
2022-12-31T10:10:30.253Z,3.70
2022-12-31T10:13:25.311Z,3.22
2022-12-31T10:16:04.467Z,3.58
2022-12-31T10:18:58.877Z,3.47
2022-12-31T10:21:39.145Z,4.53
2022-12-31T10:24:21.141Z,5.63
2022-12-31T10:26:59.327Z,6.25
2022-12-31T10:29:32.241Z,3.70
2022-12-31T10:32:14.195Z,4.65
2022-12-31T10:34:54.706Z,7.67
2022-12-31T10:37:39.465Z,3.67
2022-12-31T10:40:09.186Z,6.13
2022-12-31T10:42:42.081Z,3.15
2022-12-31T10:45:19.953Z,5.30
2022-12-31T10:48:05.619Z,5.90
2022-12-31T10:50:41.404Z,6.15
2022-12-31T10:53:14.171Z,8.52
2022-12-31T10:56:09.222Z,6.28
2022-12-31T10:59:13.586Z,4.90
2022-12-31T11:02:00.112Z,6.20
2022-12-31T11:04:42.025Z,11.38
2022-12-31T11:07:54.634Z,20.00
2022-12-31T11:10:59.189Z,21.02
2022-12-31T11:14:17.318Z,17.15
2022-12-31T11:17:27.254Z,12.03
2022-12-31T11:20:25.309Z,9.20
2022-12-31T11:22:57.024Z,10.07
2022-12-31T11:25:37.909Z,7.63
2022-12-31T11:28:35.046Z,7.65
2022-12-31T11:31:20.905Z,12.03
2022-12-31T11:34:15.543Z,7.57
2022-12-31T11:36:59.910Z,8.98
2022-12-31T11:39:45.061Z,8.85
2022-12-31T11:42:23.278Z,10.77
2022-12-31T11:44:53.032Z,9.33
2022-12-31T11:48:03.887Z,8.63
2022-12-31T11:50:25.021Z,7.97
2022-12-31T11:52:55.503Z,6.43
2022-12-31T11:55:34.322Z,7.80
2022-12-31T11:58:15.012Z,10.87
2022-12-31T12:00:54.437Z,9.35
2022-12-31T12:03:21.584Z,5.85
2022-12-31T12:05:48.442Z,7.45
2022-12-31T12:08:15.806Z,9.77
2022-12-31T12:10:50.919Z,6.93
2022-12-31T12:13:17.735Z,4.00
2022-12-31T12:15:49.670Z,6.40
2022-12-31T12:18:45.354Z,4.35
2022-12-31T12:21:15.275Z,5.65
2022-12-31T12:23:53.054Z,8.37
2022-12-31T12:26:26.596Z,4.50
2022-12-31T12:28:53.456Z,8.38
2022-12-31T12:31:23.151Z,5.30
2022-12-31T12:33:52.213Z,7.55
2022-12-31T12:36:21.290Z,8.80
2022-12-31T12:38:48.183Z,8.73
2022-12-31T12:41:25.437Z,5.70
2022-12-31T12:44:06.042Z,6.13
2022-12-31T12:46:47.741Z,6.03
2022-12-31T12:49:25.611Z,4.63
2022-12-31T12:51:55.675Z,6.45
2022-12-31T12:54:53.846Z,7.90
2022-12-31T12:58:00.161Z,4.43
2022-12-31T13:00:48.851Z,7.38
2022-12-31T13:03:21.930Z,5.63
2022-12-31T13:05:57.554Z,7.88
2022-12-31T13:09:13.059Z,8.32
2022-12-31T13:11:55.693Z,6.82
2022-12-31T13:14:36.467Z,5.75
2022-12-31T13:17:31.268Z,8.57
2022-12-31T13:20:14.394Z,8.32
2022-12-31T13:23:03.060Z,5.03
2022-12-31T13:25:30.191Z,8.68
2022-12-31T13:28:02.187Z,6.47
2022-12-31T13:30:50.294Z,7.00
2022-12-31T13:33:29.408Z,6.47
2022-12-31T13:35:57.670Z,9.90
2022-12-31T13:38:29.785Z,8.73
2022-12-31T13:41:15.219Z,8.15
2022-12-31T13:44:24.544Z,5.73
2022-12-31T13:46:56.404Z,7.50
2022-12-31T13:49:29.796Z,5.25
2022-12-31T13:52:01.781Z,5.50
2022-12-31T13:54:50.773Z,6.50
2022-12-31T13:57:23.894Z,8.20
2022-12-31T13:59:58.603Z,7.72
2022-12-31T14:03:01.491Z,7.43
2022-12-31T14:06:08.518Z,5.15
2022-12-31T14:08:35.461Z,4.80
2022-12-31T14:11:40.936Z,5.47
2022-12-31T14:14:25.987Z,5.88
2022-12-31T14:17:24.859Z,6.70
2022-12-31T14:19:57.004Z,11.50
2022-12-31T14:22:29.537Z,10.27
2022-12-31T14:24:59.143Z,5.33
2022-12-31T14:27:38.171Z,6.25
2022-12-31T14:30:17.846Z,6.55
2022-12-31T14:33:02.878Z,4.47
2022-12-31T14:35:37.250Z,6.85
2022-12-31T14:38:41.402Z,7.10
2022-12-31T14:41:10.942Z,7.22
2022-12-31T14:43:49.867Z,7.68
2022-12-31T14:46:22.621Z,7.43
2022-12-31T14:48:53.516Z,6.25
2022-12-31T14:51:20.795Z,7.30
2022-12-31T14:53:56.811Z,7.43
2022-12-31T14:56:42.312Z,9.93
2022-12-31T14:59:28.769Z,12.13
2022-12-31T15:01:58.069Z,10.77
2022-12-31T15:04:43.575Z,8.43
2022-12-31T15:07:20.885Z,10.38
2022-12-31T15:09:53.444Z,12.38
2022-12-31T15:12:30.544Z,14.02
2022-12-31T15:15:02.994Z,10.40
2022-12-31T15:17:55.049Z,7.60
2022-12-31T15:20:51.493Z,16.02
2022-12-31T15:23:24.863Z,9.70
2022-12-31T15:25:58.833Z,11.57
2022-12-31T15:28:39.147Z,9.48
2022-12-31T15:31:20.466Z,11.03
2022-12-31T15:34:23.068Z,9.00
2022-12-31T15:36:59.127Z,11.65
2022-12-31T15:39:30.474Z,10.32
2022-12-31T15:44:57.898Z,13.93
2022-12-31T15:47:29.976Z,10.30
2022-12-31T15:50:07.123Z,11.30
2022-12-31T15:52:44.432Z,12.05
2022-12-31T15:55:25.236Z,8.88
2022-12-31T15:57:55.333Z,10.47
2022-12-31T16:00:24.107Z,7.53
2022-12-31T16:02:55.007Z,9.60
2022-12-31T16:05:25.433Z,10.80
2022-12-31T16:07:54.595Z,7.57
2022-12-31T16:10:29.257Z,10.33
2022-12-31T16:12:57.928Z,9.05
2022-12-31T16:15:32.784Z,9.50
2022-12-31T16:18:05.035Z,10.68
2022-12-31T16:20:33.712Z,11.27
2022-12-31T16:23:03.154Z,11.47
2022-12-31T16:25:33.058Z,10.85
2022-12-31T16:28:02.034Z,10.75
2022-12-31T16:30:32.105Z,11.70
2022-12-31T16:33:06.699Z,10.65
2022-12-31T16:35:36.631Z,6.70
2022-12-31T16:38:16.207Z,13.40
2022-12-31T16:41:16.158Z,9.93
2022-12-31T16:43:44.033Z,8.93
2022-12-31T16:46:21.781Z,9.35
2022-12-31T16:48:53.465Z,10.77
2022-12-31T16:51:23.426Z,7.07
2022-12-31T16:53:51.665Z,9.87
2022-12-31T16:56:41.373Z,12.45
2022-12-31T16:59:22.277Z,7.03
2022-12-31T17:01:51.899Z,9.57
2022-12-31T17:04:21.041Z,12.00
2022-12-31T17:06:48.075Z,12.93
2022-12-31T17:09:20.881Z,10.68
2022-12-31T17:11:55.515Z,8.30
2022-12-31T17:14:28.222Z,8.68
2022-12-31T17:17:07.645Z,12.10
2022-12-31T17:19:50.942Z,9.07
2022-12-31T17:22:34.319Z,15.70
2022-12-31T17:25:20.285Z,12.10
2022-12-31T17:27:56.690Z,10.75
2022-12-31T17:30:32.753Z,11.45
2022-12-31T17:33:04.123Z,10.57
2022-12-31T17:35:34.207Z,9.85
2022-12-31T17:38:23.111Z,11.07
2022-12-31T17:40:52.283Z,15.48
2022-12-31T17:43:22.330Z,9.25
2022-12-31T17:45:52.682Z,13.73
2022-12-31T17:48:20.534Z,9.40
2022-12-31T17:50:55.777Z,10.20
2022-12-31T17:53:23.300Z,7.75
2022-12-31T17:55:52.502Z,9.88
2022-12-31T17:58:30.092Z,13.13
2022-12-31T18:00:58.253Z,10.57
2022-12-31T18:03:25.479Z,10.95
2022-12-31T18:05:52.385Z,13.48
2022-12-31T18:08:19.175Z,13.82
2022-12-31T18:10:46.129Z,11.40
2022-12-31T18:13:19.129Z,13.45
2022-12-31T18:15:46.541Z,14.88
2022-12-31T18:18:24.695Z,15.27
2022-12-31T18:21:05.228Z,14.68
2022-12-31T18:23:42.633Z,12.47
2022-12-31T18:26:18.302Z,10.25
2022-12-31T18:28:46.250Z,10.25
2022-12-31T18:31:23.156Z,11.25
2022-12-31T18:33:52.254Z,8.82
2022-12-31T18:36:20.296Z,8.90
2022-12-31T18:38:47.170Z,12.38
2022-12-31T18:41:23.200Z,9.75
2022-12-31T18:43:50.782Z,12.93
2022-12-31T18:46:20.225Z,7.68
2022-12-31T18:48:47.673Z,10.10
2022-12-31T18:51:29.275Z,13.95
2022-12-31T18:53:58.204Z,14.25
2022-12-31T18:56:25.255Z,9.30
2022-12-31T18:58:52.139Z,17.98
2022-12-31T19:01:28.825Z,15.53
2022-12-31T19:03:57.546Z,18.77
2022-12-31T19:06:25.065Z,13.10
2022-12-31T19:08:52.221Z,11.38
2022-12-31T19:11:20.141Z,9.10
2022-12-31T19:13:47.719Z,10.93
2022-12-31T19:16:15.072Z,7.72
2022-12-31T19:18:42.517Z,8.93
2022-12-31T19:21:16.231Z,13.13
2022-12-31T19:23:43.191Z,11.30
2022-12-31T19:26:18.097Z,10.47
2022-12-31T19:28:46.348Z,15.32
2022-12-31T19:31:13.881Z,10.15
2022-12-31T19:33:41.139Z,9.52
2022-12-31T19:36:17.721Z,12.48
2022-12-31T19:38:45.393Z,15.13
2022-12-31T19:41:19.252Z,9.73
2022-12-31T19:43:47.703Z,12.05
2022-12-31T19:46:16.783Z,8.10
2022-12-31T19:48:43.924Z,12.27
2022-12-31T19:51:21.453Z,10.27
2022-12-31T19:53:49.489Z,11.90
2022-12-31T19:56:19.745Z,11.73
2022-12-31T19:58:46.841Z,10.05
2022-12-31T20:01:23.749Z,9.07
2022-12-31T20:03:51.202Z,9.83
2022-12-31T20:06:19.472Z,16.85
2022-12-31T20:08:46.591Z,11.57
2022-12-31T20:11:18.571Z,10.05
2022-12-31T20:13:46.650Z,11.70
2022-12-31T20:16:16.914Z,10.07
2022-12-31T20:18:45.469Z,10.27
2022-12-31T20:21:17.909Z,11.82
2022-12-31T20:23:45.630Z,11.90
2022-12-31T20:26:12.842Z,14.10
2022-12-31T20:28:39.891Z,12.80
2022-12-31T20:31:15.231Z,8.35
2022-12-31T20:33:42.715Z,9.55
2022-12-31T20:36:12.274Z,9.30
2022-12-31T20:38:39.217Z,11.52
2022-12-31T20:41:12.241Z,11.77
2022-12-31T20:43:39.893Z,13.07
2022-12-31T20:46:16.476Z,11.25
2022-12-31T20:48:44.739Z,11.63
2022-12-31T20:51:12.936Z,10.77
2022-12-31T20:53:40.128Z,9.27
2022-12-31T20:56:08.400Z,14.05
2022-12-31T20:58:35.645Z,10.85
2022-12-31T21:01:07.182Z,9.88
2022-12-31T21:06:26.817Z,14.27
2022-12-31T21:08:55.721Z,16.92
2022-12-31T21:11:41.418Z,13.93
2022-12-31T21:14:08.395Z,12.88
2022-12-31T21:16:35.383Z,10.60
2022-12-31T21:19:02.276Z,8.77
2022-12-31T21:21:29.271Z,11.80
2022-12-31T21:23:56.094Z,14.02
2022-12-31T21:26:22.975Z,10.73
2022-12-31T21:28:49.919Z,13.90
2022-12-31T21:31:16.814Z,17.53
2022-12-31T21:33:48.092Z,7.00
2022-12-31T21:36:15.727Z,15.98
2022-12-31T21:38:43.211Z,10.57
2022-12-31T21:41:33.453Z,9.48
2022-12-31T21:44:01.525Z,15.00
2022-12-31T21:46:29.163Z,13.80
2022-12-31T21:48:58.130Z,14.27
2022-12-31T21:51:25.408Z,11.98
2022-12-31T21:53:52.590Z,11.15
2022-12-31T21:56:21.275Z,9.70
2022-12-31T21:59:14.246Z,11.40
2022-12-31T22:01:59.881Z,12.90
2022-12-31T22:05:00.779Z,7.78
2022-12-31T22:07:14.329Z,10.70
2022-12-31T22:09:41.261Z,10.27
2022-12-31T22:12:08.109Z,11.30
2022-12-31T22:14:34.902Z,16.73
2022-12-31T22:17:01.696Z,11.45
2022-12-31T22:19:28.533Z,13.32
2022-12-31T22:21:55.407Z,12.77
2022-12-31T22:24:22.281Z,14.52
2022-12-31T22:26:49.241Z,12.52
2022-12-31T22:29:16.047Z,11.00
2022-12-31T22:31:42.977Z,13.98
2022-12-31T22:34:09.949Z,11.77
2022-12-31T22:36:36.756Z,10.32
2022-12-31T22:39:03.649Z,8.70
2022-12-31T22:41:30.520Z,12.27
2022-12-31T22:44:03.797Z,13.48
2022-12-31T22:46:32.075Z,11.00
2022-12-31T22:49:00.829Z,13.48
2022-12-31T22:51:55.784Z,10.95
2022-12-31T22:54:15.935Z,13.00
2022-12-31T22:56:42.743Z,13.63
2022-12-31T22:59:09.987Z,12.67
2022-12-31T23:01:37.341Z,10.85
2022-12-31T23:04:04.964Z,38.65
2022-12-31T23:06:31.981Z,36.72
2022-12-31T23:09:17.696Z,57.20
2022-12-31T23:11:44.536Z,63.00
2022-12-31T23:14:35.757Z,56.17
2022-12-31T23:17:31.181Z,49.65
2022-12-31T23:20:18.960Z,63.53
2022-12-31T23:23:07.400Z,40.30
2022-12-31T23:25:36.673Z,30.50
2022-12-31T23:28:04.386Z,25.00
2022-12-31T23:30:31.346Z,35.42
2022-12-31T23:32:58.422Z,37.00
2022-12-31T23:35:25.440Z,34.42
2022-12-31T23:37:52.272Z,27.30
2022-12-31T23:40:21.726Z,30.85
2022-12-31T23:42:51.509Z,46.45
2022-12-31T23:45:18.393Z,29.88
2022-12-31T23:47:45.279Z,32.88
2022-12-31T23:50:12.041Z,32.37
2022-12-31T23:52:38.823Z,28.00
2022-12-31T23:55:05.906Z,23.65
2022-12-31T23:57:32.665Z,26.27
